Ajo, Arizona
Current Conditions -  °F | °C
As of 6:35 AM on Sunday 23 Nov 2014 (Local Time) from KBXK Reporting Station
Few Clouds Few Clouds  
Wind Chill:   Ceiling: Unl
Heat Index:   Visibility: 10mi
Dew Point: -4°   Wind: 5mph
Humidity: 53%   Direction: 30°NNE
Pressure: 30"   Gusts: NA
Location:  32.37°N, 112.86°W
Report Text: KBXK 231335Z AUTO 03004KT 10SM FEW060 05/M04 A3000 RMK AO1
Loading
Personal Weather Stations






























Interactive Weather Map New forecast layout! Learn more

10-Day Weather Forecast

Advertisements
Track Severe Weather on mobile